Terminal Aerodrome Forecast
Issued by NWS

Home | Current Version | Previous Version | Text Only | Print | Product List | Glossary On
Versions: 1 2 3 4 5 6 7 8 9 10 11 12 13 14 15 16
364
FTUS43 KAPX 271725
TAFMBL
TAF
KMBL 271725Z 2718/2818 31005KT P6SM OVC008
     FM272100 35005KT P6SM OVC010
     FM280500 02005KT 5SM BR OVC008
     FM281000 02005KT 3SM BR OVC003
     FM281100 03005KT 3SM BR OVC008
     FM281400 03005KT P6SM SCT015
     FM281700 02010KT P6SM FEW120=

USA.gov is the U.S. government's official web portal to all federal, state and local government web resources and services.